Time;durP1;ratioP1;P1;durP2;ratioP2;P2;SDS_P1;SDS_P2;PMS_P1;PMS_P2;Temp;Humidity;BMP_temperature;BMP_pressure;BME280_temperature;BME280_humidity;BME280_pressure;Samples;Min_cycle;Max_cycle;Signal;HPM_P1;HPM_P2
2024/01/25 00:04:02;;;;;;;6.70;3.30;;;;;;;5.81;88.61;99434.20;213872;1268;66191;-72
2024/01/25 00:09:09;;;;;;;8.40;2.60;;;;;;;5.81;88.47;99434.02;213867;1273;61290;-73
2024/01/25 00:14:02;;;;;;;6.50;2.80;;;;;;;5.79;88.31;99432.63;213590;1268;74550;-72
2024/01/25 00:19:00;;;;;;;6.80;2.10;;;;;;;5.77;88.18;99430.00;213879;1268;72793;-72
2024/01/25 00:23:53;;;;;;;6.70;1.80;;;;;;;5.77;87.93;99436.54;213899;1268;61384;-72
2024/01/25 00:28:46;;;;;;;6.00;2.80;;;;;;;5.79;87.58;99436.39;213951;1268;61296;-71
2024/01/25 00:33:38;;;;;;;2.90;1.70;;;;;;;5.80;87.50;99435.38;213852;1268;61339;-71
2024/01/25 00:38:32;;;;;;;4.10;1.50;;;;;;;5.80;87.20;99443.98;213942;1272;61294;-72
2024/01/25 00:43:25;;;;;;;6.60;1.70;;;;;;;5.80;87.14;99444.15;213993;1268;61267;-71
2024/01/25 00:48:18;;;;;;;4.70;1.70;;;;;;;5.78;87.07;99437.92;214034;1268;61293;-71
2024/01/25 00:53:11;;;;;;;7.00;1.60;;;;;;;5.73;87.20;99444.55;213947;1268;65977;-71
2024/01/25 00:58:04;;;;;;;4.00;1.60;;;;;;;5.68;87.39;99445.86;213832;1268;61361;-71
2024/01/25 01:02:59;;;;;;;5.30;1.70;;;;;;;5.64;87.64;99444.42;213916;1269;73507;-71
2024/01/25 01:07:52;;;;;;;5.50;1.70;;;;;;;5.58;88.14;99453.61;213859;1268;72618;-71
2024/01/25 01:12:45;;;;;;;6.40;2.20;;;;;;;5.52;88.85;99456.26;214001;1268;61236;-71
2024/01/25 01:17:38;;;;;;;8.00;2.90;;;;;;;5.45;89.24;99454.73;213846;1268;61291;-71
2024/01/25 01:22:30;;;;;;;12.80;3.00;;;;;;;5.38;89.76;99449.30;213993;1268;61965;-72
2024/01/25 01:27:23;;;;;;;12.00;3.10;;;;;;;5.33;89.93;99452.30;214062;1268;61287;-72
2024/01/25 01:32:16;;;;;;;6.10;2.40;;;;;;;5.29;90.22;99451.71;213984;1268;61349;-71
2024/01/25 01:37:09;;;;;;;9.20;3.60;;;;;;;5.25;90.57;99445.80;213688;1268;192552;-71
2024/01/25 01:42:02;;;;;;;7.10;2.70;;;;;;;5.21;90.80;99435.08;214059;1271;61310;-71
2024/01/25 01:46:56;;;;;;;11.60;2.70;;;;;;;5.18;90.90;99450.83;214094;1268;61834;-71
2024/01/25 01:51:48;;;;;;;11.40;3.30;;;;;;;5.15;90.99;99449.23;214094;1268;61303;-72
2024/01/25 01:56:44;;;;;;;13.00;3.50;;;;;;;5.14;90.95;99446.65;213914;1268;72533;-71
2024/01/25 02:01:37;;;;;;;14.30;3.90;;;;;;;5.12;91.14;99451.41;214078;1272;61405;-71
2024/01/25 02:06:30;;;;;;;7.40;2.70;;;;;;;5.11;91.12;99451.05;214027;1268;65972;-72
2024/01/25 02:11:23;;;;;;;11.10;2.70;;;;;;;5.08;91.27;99450.13;214081;1268;61364;-72
2024/01/25 02:16:17;;;;;;;9.60;2.90;;;;;;;5.08;91.18;99444.47;213886;1268;61297;-72
2024/01/25 02:21:11;;;;;;;9.10;2.70;;;;;;;5.08;91.04;99441.88;214058;1270;71699;-72
2024/01/25 02:26:04;;;;;;;9.30;3.30;;;;;;;5.09;90.96;99448.44;214094;1272;61371;-71
2024/01/25 02:30:56;;;;;;;7.30;2.70;;;;;;;5.12;90.76;99449.88;214008;1268;61419;-72
2024/01/25 02:35:49;;;;;;;15.70;4.20;;;;;;;5.13;90.60;99452.46;214030;1268;61255;-72
2024/01/25 02:40:42;;;;;;;7.00;2.60;;;;;;;5.16;90.52;99466.41;214001;1268;61321;-72
2024/01/25 02:45:35;;;;;;;14.00;3.00;;;;;;;5.15;90.59;99463.65;213841;1268;61296;-72
2024/01/25 02:50:28;;;;;;;10.50;3.60;;;;;;;5.13;90.61;99466.54;214016;1272;61812;-72
2024/01/25 02:55:21;;;;;;;7.50;3.00;;;;;;;5.11;90.78;99466.50;214036;1268;61929;-71
2024/01/25 03:00:14;;;;;;;11.40;3.20;;;;;;;5.06;90.84;99457.98;214007;1270;61288;-71
2024/01/25 03:05:07;;;;;;;11.20;3.50;;;;;;;5.01;91.00;99460.30;213990;1268;61237;-71
2024/01/25 03:10:00;;;;;;;11.70;3.00;;;;;;;4.97;91.19;99461.42;214044;1269;70971;-71
2024/01/25 03:14:53;;;;;;;9.60;3.30;;;;;;;4.93;91.20;99461.55;214023;1268;61430;-71
2024/01/25 03:19:47;;;;;;;16.90;3.90;;;;;;;4.90;91.28;99467.83;213997;1268;61938;-72
2024/01/25 03:24:40;;;;;;;10.30;4.40;;;;;;;4.89;91.38;99472.96;213986;1268;61457;-71
2024/01/25 03:29:33;;;;;;;11.40;2.90;;;;;;;4.88;91.44;99481.01;214049;1268;61283;-71
2024/01/25 03:34:26;;;;;;;10.50;3.00;;;;;;;4.85;91.50;99482.66;213953;1268;61983;-71
2024/01/25 03:39:19;;;;;;;12.00;4.50;;;;;;;4.82;91.53;99480.20;213985;1271;61296;-71
2024/01/25 03:44:11;;;;;;;8.20;2.50;;;;;;;4.79;91.60;99481.52;213994;1268;61387;-71
2024/01/25 03:49:04;;;;;;;18.90;6.40;;;;;;;4.76;91.60;99479.91;214027;1272;61296;-71
2024/01/25 03:53:58;;;;;;;24.30;6.90;;;;;;;4.74;91.70;99482.80;214009;1268;61313;-71
2024/01/25 03:58:51;;;;;;;13.20;5.90;;;;;;;4.71;91.75;99486.32;213857;1273;61278;-72
2024/01/25 04:03:43;;;;;;;16.30;5.50;;;;;;;4.68;91.93;99479.05;213970;1268;61358;-71
2024/01/25 04:08:36;;;;;;;10.90;3.90;;;;;;;4.66;91.87;99473.33;214012;1268;61270;-71
2024/01/25 04:13:29;;;;;;;16.10;3.80;;;;;;;4.64;92.03;99473.81;214034;1268;61256;-71
2024/01/25 04:18:22;;;;;;;10.70;3.80;;;;;;;4.65;92.08;99476.91;214000;1268;61299;-71
2024/01/25 04:23:15;;;;;;;12.90;4.20;;;;;;;4.64;92.05;99477.25;214002;1273;61231;-72
2024/01/25 04:28:08;;;;;;;19.70;7.90;;;;;;;4.64;92.01;99487.71;214002;1272;61308;-71
2024/01/25 04:33:00;;;;;;;16.40;5.70;;;;;;;4.62;92.11;99491.11;213976;1272;61634;-72
2024/01/25 04:37:53;;;;;;;13.90;6.10;;;;;;;4.60;91.98;99494.33;213960;1268;61339;-72
2024/01/25 04:42:46;;;;;;;18.80;5.90;;;;;;;4.59;92.02;99490.36;214036;1268;61410;-72
2024/01/25 04:47:39;;;;;;;15.10;6.20;;;;;;;4.58;91.83;99490.68;214098;1270;61155;-72
2024/01/25 04:52:32;;;;;;;16.10;6.90;;;;;;;4.57;91.85;99500.27;214027;1272;61399;-72
2024/01/25 04:57:25;;;;;;;17.20;5.70;;;;;;;4.56;91.82;99499.57;214019;1272;61739;-72
2024/01/25 05:02:18;;;;;;;19.30;6.10;;;;;;;4.54;91.72;99502.79;213798;1268;61319;-71
2024/01/25 05:07:11;;;;;;;11.20;4.20;;;;;;;4.52;91.78;99505.81;213947;1268;61274;-71
2024/01/25 05:12:04;;;;;;;13.40;4.30;;;;;;;4.51;91.74;99505.30;214004;1268;61294;-72
2024/01/25 05:16:57;;;;;;;11.20;2.70;;;;;;;4.52;91.64;99505.13;214004;1268;61208;-72
2024/01/25 05:21:50;;;;;;;12.40;4.00;;;;;;;4.51;91.68;99504.61;213956;1268;61356;-72
2024/01/25 05:26:43;;;;;;;7.30;2.70;;;;;;;4.51;91.49;99503.75;214052;1268;61294;-72
2024/01/25 05:31:36;;;;;;;9.00;2.30;;;;;;;4.51;91.49;99506.31;213919;1268;61286;-72
2024/01/25 05:36:29;;;;;;;13.30;3.50;;;;;;;4.51;91.37;99519.01;214004;1271;61446;-71
2024/01/25 05:41:21;;;;;;;6.70;2.80;;;;;;;4.53;91.01;99519.07;213890;1268;61450;-71
2024/01/25 05:46:14;;;;;;;8.00;2.50;;;;;;;4.55;91.07;99519.46;214011;1268;62061;-72
2024/01/25 05:51:07;;;;;;;8.60;3.20;;;;;;;4.55;91.03;99520.14;214098;1273;61274;-71
2024/01/25 05:56:00;;;;;;;7.40;2.40;;;;;;;4.56;90.71;99522.04;213905;1273;67247;-71
2024/01/25 06:00:52;;;;;;;13.70;3.30;;;;;;;4.58;90.73;99521.23;213960;1272;61409;-71
2024/01/25 06:05:45;;;;;;;14.60;3.80;;;;;;;4.61;90.53;99524.04;213997;1270;61281;-72
2024/01/25 06:10:39;;;;;;;11.60;2.70;;;;;;;4.63;90.31;99528.53;214003;1269;61221;-71
2024/01/25 06:15:32;;;;;;;11.70;3.00;;;;;;;4.65;90.25;99534.92;214056;1272;61399;-71
2024/01/25 06:20:25;;;;;;;11.00;3.00;;;;;;;4.66;89.96;99539.08;213982;1268;61282;-72
2024/01/25 06:25:18;;;;;;;10.30;3.50;;;;;;;4.67;89.95;99542.36;214024;1272;61268;-72
2024/01/25 06:30:11;;;;;;;6.80;2.60;;;;;;;4.68;89.87;99548.92;213995;1268;61378;-72
2024/01/25 06:35:05;;;;;;;6.10;2.60;;;;;;;4.69;89.44;99548.41;213955;1272;73015;-72
2024/01/25 06:39:58;;;;;;;14.60;4.10;;;;;;;4.70;89.57;99548.09;213999;1268;61125;-72
2024/01/25 06:44:51;;;;;;;7.30;3.10;;;;;;;4.71;89.31;99549.48;214062;1268;65490;-72
2024/01/25 06:49:47;;;;;;;12.40;3.30;;;;;;;4.72;89.39;99548.82;214105;1269;61458;-71
2024/01/25 06:54:41;;;;;;;6.70;2.20;;;;;;;4.74;89.26;99544.59;214065;1269;72973;-71
2024/01/25 06:59:34;;;;;;;7.70;2.60;;;;;;;4.75;89.38;99556.27;214024;1273;61281;-71
2024/01/25 07:04:27;;;;;;;16.70;2.80;;;;;;;4.74;89.57;99555.39;214033;1268;61620;-71
2024/01/25 07:09:21;;;;;;;10.10;3.20;;;;;;;4.71;89.67;99566.31;214058;1272;66310;-71
2024/01/25 07:14:14;;;;;;;15.60;3.40;;;;;;;4.69;89.78;99570.74;214008;1270;61333;-71
2024/01/25 07:19:06;;;;;;;11.60;2.50;;;;;;;4.67;89.99;99578.57;214044;1272;70834;-71
2024/01/25 07:24:02;;;;;;;9.60;2.20;;;;;;;4.67;90.26;99577.36;214013;1270;61313;-71
2024/01/25 07:28:58;;;;;;;5.50;1.80;;;;;;;4.68;90.50;99579.45;214046;1272;61302;-70
2024/01/25 07:33:50;;;;;;;9.40;2.40;;;;;;;4.67;90.77;99582.69;214037;1273;65838;-70
2024/01/25 07:38:43;;;;;;;9.20;3.00;;;;;;;4.66;90.82;99583.36;213982;1271;60527;-71
2024/01/25 07:43:36;;;;;;;3.70;1.40;;;;;;;4.64;90.91;99586.06;213966;1270;61303;-70
2024/01/25 07:48:29;;;;;;;7.60;1.90;;;;;;;4.63;90.99;99589.13;214005;1268;61350;-70
2024/01/25 07:53:22;;;;;;;12.40;2.80;;;;;;;4.63;91.08;99596.68;214012;1270;61278;-71
2024/01/25 07:58:16;;;;;;;7.40;2.70;;;;;;;4.63;91.33;99596.17;213941;1270;61385;-71
2024/01/25 08:03:09;;;;;;;7.40;2.30;;;;;;;4.63;91.32;99600.11;214005;1271;61283;-71
2024/01/25 08:08:03;;;;;;;5.10;2.10;;;;;;;4.62;91.58;99602.66;213954;1271;73365;-71
2024/01/25 08:12:57;;;;;;;7.30;2.50;;;;;;;4.61;91.52;99598.19;214038;1272;71411;-71
2024/01/25 08:17:59;;;;;;;4.10;1.80;;;;;;;4.64;91.71;99599.45;213920;1270;61287;-71
2024/01/25 08:22:52;;;;;;;10.20;3.10;;;;;;;4.66;91.64;99606.20;213924;1272;65709;-71
2024/01/25 08:27:44;;;;;;;8.40;2.20;;;;;;;4.66;91.76;99607.39;214020;1272;61355;-71
2024/01/25 08:32:37;;;;;;;7.10;2.40;;;;;;;4.64;91.69;99612.67;213500;1270;61796;-73
2024/01/25 08:37:30;;;;;;;5.30;2.40;;;;;;;4.63;91.85;99615.92;213859;1269;61376;-72
2024/01/25 08:42:23;;;;;;;6.20;2.40;;;;;;;4.67;91.95;99622.00;213970;1272;61255;-72
2024/01/25 08:47:18;;;;;;;10.00;2.50;;;;;;;4.74;91.83;99629.91;213970;1270;61411;-71
2024/01/25 08:52:11;;;;;;;7.40;2.30;;;;;;;4.77;91.67;99633.58;213911;1272;61274;-71
2024/01/25 08:57:06;;;;;;;4.70;1.90;;;;;;;4.81;91.76;99638.13;213884;1272;73412;-71
2024/01/25 09:01:58;;;;;;;4.40;1.90;;;;;;;4.87;91.78;99644.11;213873;1269;71647;-71
2024/01/25 09:06:52;;;;;;;5.00;2.00;;;;;;;4.91;91.66;99651.60;213912;1270;61282;-72
2024/01/25 09:11:45;;;;;;;3.90;1.80;;;;;;;4.92;91.68;99663.61;213874;1270;67422;-71
2024/01/25 09:16:38;;;;;;;3.50;1.40;;;;;;;4.86;91.74;99667.27;213840;1269;61288;-72
2024/01/25 09:21:31;;;;;;;3.10;1.60;;;;;;;4.83;91.72;99679.04;213944;1270;61299;-72
2024/01/25 09:26:24;;;;;;;2.80;1.60;;;;;;;4.85;91.93;99688.02;213713;1270;61297;-72
2024/01/25 09:31:17;;;;;;;5.10;2.20;;;;;;;4.85;91.92;99697.80;213819;1269;61542;-70
2024/01/25 09:36:10;;;;;;;3.50;1.80;;;;;;;4.85;92.09;99698.16;213960;1270;61332;-70
2024/01/25 09:41:04;;;;;;;1.70;1.60;;;;;;;4.88;92.06;99700.45;213928;1272;61384;-70
2024/01/25 09:45:57;;;;;;;2.30;1.60;;;;;;;4.92;92.06;99700.04;213837;1268;73504;-70
2024/01/25 09:50:52;;;;;;;3.20;1.70;;;;;;;4.95;92.05;99703.71;213693;1270;71446;-71
2024/01/25 09:55:56;;;;;;;1.80;1.40;;;;;;;5.01;92.06;99714.98;213636;1271;61355;-70
2024/01/25 10:00:49;;;;;;;2.30;1.70;;;;;;;5.06;92.06;99714.93;213822;1270;67035;-70
2024/01/25 10:05:43;;;;;;;3.10;1.90;;;;;;;5.13;91.90;99713.91;213800;1271;61267;-70
2024/01/25 10:10:36;;;;;;;3.10;1.90;;;;;;;5.16;91.95;99721.36;213763;1270;61377;-71
2024/01/25 10:15:29;;;;;;;2.30;1.10;;;;;;;5.15;91.92;99729.41;213826;1268;72409;-70
2024/01/25 10:20:24;;;;;;;3.40;1.90;;;;;;;5.14;92.06;99738.31;213539;1267;61270;-70
2024/01/25 10:25:17;;;;;;;2.20;1.50;;;;;;;5.09;91.98;99745.77;213734;1269;67068;-70
2024/01/25 10:30:11;;;;;;;1.70;1.40;;;;;;;5.08;92.04;99749.33;213615;1267;61417;-70
2024/01/25 10:35:07;;;;;;;2.70;1.60;;;;;;;5.10;92.01;99760.40;213843;1268;74732;-70
2024/01/25 10:40:01;;;;;;;2.80;1.50;;;;;;;5.14;91.91;99761.17;213785;1268;71392;-71
2024/01/25 10:44:54;;;;;;;3.30;1.80;;;;;;;5.20;91.85;99773.35;213778;1268;61272;-71
2024/01/25 10:49:48;;;;;;;2.10;1.30;;;;;;;5.23;91.80;99781.98;213700;1268;61388;-70
2024/01/25 10:54:41;;;;;;;2.70;1.80;;;;;;;5.24;91.60;99783.41;213801;1272;61304;-70
2024/01/25 10:59:35;;;;;;;1.50;1.30;;;;;;;5.31;91.44;99778.74;213889;1272;73896;-71
2024/01/25 11:04:27;;;;;;;1.40;1.30;;;;;;;5.38;91.45;99787.15;213972;1270;73578;-70
2024/01/25 11:09:22;;;;;;;3.20;1.60;;;;;;;5.42;91.14;99791.03;213872;1268;61320;-70
2024/01/25 11:14:16;;;;;;;2.80;1.10;;;;;;;5.44;90.82;99791.41;214018;1268;67079;-71
2024/01/25 11:19:09;;;;;;;1.20;1.10;;;;;;;5.53;90.61;99782.84;214099;1270;61396;-71
2024/01/25 11:24:03;;;;;;;1.60;1.20;;;;;;;5.61;90.23;99785.09;214036;1268;73466;-71
2024/01/25 11:28:56;;;;;;;1.20;1.00;;;;;;;5.61;89.94;99788.36;214220;1270;72700;-72
2024/01/25 11:33:49;;;;;;;2.40;1.40;;;;;;;5.58;89.95;99792.27;213678;1268;61287;-70
2024/01/25 11:38:42;;;;;;;1.80;1.00;;;;;;;5.55;89.87;99795.45;213988;1268;61268;-71
2024/01/25 11:43:36;;;;;;;1.50;1.20;;;;;;;5.52;89.85;99808.61;214031;1268;61942;-71
2024/01/25 11:48:30;;;;;;;2.60;1.00;;;;;;;5.48;89.85;99810.60;213982;1271;74603;-72
2024/01/25 11:53:24;;;;;;;1.80;1.10;;;;;;;5.47;89.83;99812.11;214063;1268;72627;-72
2024/01/25 11:58:17;;;;;;;2.40;1.20;;;;;;;5.46;89.51;99823.61;213911;1268;61293;-72
2024/01/25 12:03:11;;;;;;;1.90;1.20;;;;;;;5.48;89.31;99833.98;214044;1268;66996;-72
2024/01/25 12:08:14;;;;;;;2.10;1.30;;;;;;;5.54;89.09;99841.48;213735;1268;61281;-73
2024/01/25 12:13:21;;;;;;;2.60;1.30;;;;;;;5.59;88.84;99839.89;213888;1268;74475;-71
2024/01/25 12:18:15;;;;;;;1.50;1.20;;;;;;;5.63;88.70;99841.69;213974;1268;61367;-72
2024/01/25 12:23:09;;;;;;;2.60;1.40;;;;;;;5.61;88.75;99860.06;213892;1268;61296;-72
2024/01/25 12:28:02;;;;;;;7.90;1.90;;;;;;;5.56;89.17;99891.71;214181;1268;66132;-72
2024/01/25 12:32:57;;;;;;;1.60;1.20;;;;;;;5.42;89.09;99921.98;214005;1268;61377;-72
2024/01/25 12:37:50;;;;;;;2.10;0.80;;;;;;;5.13;88.46;99931.73;214072;1268;61285;-71
2024/01/25 12:42:43;;;;;;;1.10;1.00;;;;;;;4.88;88.29;99949.80;213964;1268;72305;-71
2024/01/25 12:47:36;;;;;;;2.70;1.10;;;;;;;4.66;88.53;99957.55;214142;1268;61271;-71
2024/01/25 12:52:37;;;;;;;1.90;1.70;;;;;;;4.54;88.60;99967.73;213935;1270;66326;-71
2024/01/25 12:57:31;;;;;;;3.40;1.20;;;;;;;4.45;88.60;99979.46;213944;1268;61288;-68
2024/01/25 13:02:24;;;;;;;1.80;1.40;;;;;;;4.38;88.67;99989.89;214072;1268;79878;-69
2024/01/25 13:07:17;;;;;;;1.40;1.30;;;;;;;4.48;88.36;99993.45;214032;1270;61325;-70
2024/01/25 13:12:09;;;;;;;1.60;1.40;;;;;;;4.52;88.21;99993.92;214120;1268;61410;-70
2024/01/25 13:17:02;;;;;;;1.30;1.20;;;;;;;4.46;88.06;99991.33;213936;1270;61376;-70
2024/01/25 13:21:55;;;;;;;4.00;1.70;;;;;;;4.41;88.07;99987.75;213874;1269;61276;-70
2024/01/25 13:26:48;;;;;;;1.30;1.20;;;;;;;4.39;88.32;99989.21;213954;1270;61230;-70
2024/01/25 13:31:42;;;;;;;2.50;1.70;;;;;;;4.34;88.49;99992.67;213946;1270;61282;-72
2024/01/25 13:36:34;;;;;;;2.30;1.60;;;;;;;4.39;88.11;100003.81;213720;1270;219869;-71
2024/01/25 13:41:28;;;;;;;2.40;1.70;;;;;;;4.40;88.14;100022.89;213817;1273;61618;-70
2024/01/25 13:46:20;;;;;;;2.90;1.60;;;;;;;4.29;87.95;100039.02;213757;1269;61309;-69
2024/01/25 13:51:16;;;;;;;2.60;1.20;;;;;;;4.14;87.16;100047.46;214042;1269;74376;-69
2024/01/25 13:56:08;;;;;;;2.90;1.70;;;;;;;3.97;86.50;100055.15;213758;1270;61280;-69
2024/01/25 14:01:01;;;;;;;2.00;1.20;;;;;;;3.84;86.40;100058.17;213880;1270;61296;-70
2024/01/25 14:05:56;;;;;;;2.30;1.70;;;;;;;3.71;86.50;100069.57;214109;1270;61516;-70
2024/01/25 14:10:49;;;;;;;2.30;1.70;;;;;;;3.53;85.94;100076.64;214040;1270;61210;-70
2024/01/25 14:15:44;;;;;;;4.90;1.90;;;;;;;3.33;85.73;100088.95;214037;1269;73467;-69
2024/01/25 14:20:38;;;;;;;1.70;1.40;;;;;;;3.16;85.95;100099.63;214113;1268;71444;-70
2024/01/25 14:25:31;;;;;;;1.60;1.00;;;;;;;3.00;85.61;100104.89;213948;1268;61318;-70
2024/01/25 14:30:30;;;;;;;3.80;1.60;;;;;;;2.91;85.79;100122.31;214004;1268;65548;-71
2024/01/25 14:35:27;;;;;;;1.20;1.10;;;;;;;2.81;85.69;100134.29;214112;1268;61294;-69
2024/01/25 14:40:22;;;;;;;1.30;1.10;;;;;;;2.74;85.81;100148.21;214084;1268;74390;-71
2024/01/25 14:45:36;;;;;;;1.60;1.40;;;;;;;2.74;85.99;100162.40;214050;1272;71447;-70
2024/01/25 14:50:29;;;;;;;1.10;1.00;;;;;;;2.76;86.29;100170.34;214098;1268;61333;-71
2024/01/25 14:55:25;;;;;;;1.70;1.30;;;;;;;2.75;85.76;100175.79;213824;1268;66832;-70
2024/01/25 15:00:19;;;;;;;3.20;1.60;;;;;;;2.68;85.53;100183.23;214063;1268;61423;-69
2024/01/25 15:05:13;;;;;;;2.10;1.20;;;;;;;2.66;85.71;100193.58;214150;1270;73386;-70
2024/01/25 15:10:06;;;;;;;2.00;1.20;;;;;;;2.65;85.15;100195.27;214105;1268;72650;-69
2024/01/25 15:15:02;;;;;;;2.00;1.30;;;;;;;2.60;84.97;100200.54;214084;1268;61377;-69
2024/01/25 15:19:54;;;;;;;2.10;1.20;;;;;;;2.57;85.04;100208.81;214090;1268;61239;-70
2024/01/25 15:24:47;;;;;;;3.00;1.10;;;;;;;2.58;84.86;100226.61;214139;1268;61384;-70
2024/01/25 15:29:41;;;;;;;3.50;2.00;;;;;;;2.58;84.87;100235.71;214114;1268;61335;-70
2024/01/25 15:34:33;;;;;;;1.70;1.60;;;;;;;2.61;85.07;100246.27;214007;1268;61128;-70
2024/01/25 15:39:27;;;;;;;2.00;1.50;;;;;;;2.65;85.25;100256.53;213996;1267;61271;-70
2024/01/25 15:44:20;;;;;;;2.10;1.30;;;;;;;2.69;85.06;100266.96;213555;1268;66996;-69
2024/01/25 15:49:15;;;;;;;4.50;2.20;;;;;;;2.72;85.06;100272.36;213985;1268;61301;-69
2024/01/25 15:54:08;;;;;;;2.20;1.60;;;;;;;2.73;84.64;100270.03;214036;1268;74635;-69
2024/01/25 15:59:00;;;;;;;1.70;1.40;;;;;;;2.72;84.23;100269.47;214069;1268;61264;-70
2024/01/25 16:03:53;;;;;;;1.90;1.70;;;;;;;2.70;84.64;100282.72;214071;1268;61341;-69
2024/01/25 16:08:47;;;;;;;3.00;2.30;;;;;;;2.70;84.27;100294.54;213989;1268;61281;-69
2024/01/25 16:13:39;;;;;;;4.10;2.40;;;;;;;2.69;84.11;100308.88;214020;1268;61299;-69
2024/01/25 16:18:35;;;;;;;5.00;2.30;;;;;;;2.71;84.32;100325.88;214089;1270;73489;-69
2024/01/25 16:23:28;;;;;;;3.60;2.10;;;;;;;2.72;84.03;100327.65;214002;1268;72072;-70
2024/01/25 16:28:21;;;;;;;3.70;2.00;;;;;;;2.66;83.54;100344.34;213881;1268;61548;-70
2024/01/25 16:33:14;;;;;;;2.70;1.90;;;;;;;2.60;83.58;100354.19;214006;1268;61572;-69
2024/01/25 16:38:07;;;;;;;2.10;1.50;;;;;;;2.61;83.80;100361.41;213967;1270;61275;-69
2024/01/25 16:43:01;;;;;;;17.20;9.30;;;;;;;2.64;83.45;100375.77;213998;1268;61424;-69
2024/01/25 16:48:02;;;;;;;4.00;2.40;;;;;;;2.67;83.29;100390.79;214027;1268;71429;-70
2024/01/25 16:52:56;;;;;;;4.40;2.60;;;;;;;2.67;83.08;100394.38;214017;1270;61297;-69
2024/01/25 16:57:49;;;;;;;3.40;3.00;;;;;;;2.67;82.67;100404.65;214044;1268;66605;-71
2024/01/25 17:02:45;;;;;;;2.10;1.50;;;;;;;2.67;82.57;100409.60;213935;1270;61290;-71
2024/01/25 17:07:38;;;;;;;2.00;1.40;;;;;;;2.66;82.45;100414.38;214001;1270;61401;-71
2024/01/25 17:12:30;;;;;;;1.90;1.30;;;;;;;2.65;82.25;100419.64;213984;1268;61268;-71
2024/01/25 17:17:25;;;;;;;3.30;1.60;;;;;;;2.63;82.01;100423.11;213941;1272;61321;-70
2024/01/25 17:22:18;;;;;;;1.20;1.10;;;;;;;2.60;81.63;100424.38;213970;1268;66777;-70
2024/01/25 17:27:11;;;;;;;1.60;1.20;;;;;;;2.58;81.18;100430.59;213992;1268;61305;-68
2024/01/25 17:32:04;;;;;;;1.50;1.00;;;;;;;2.56;81.08;100436.32;214120;1268;74135;-69
2024/01/25 17:37:02;;;;;;;2.00;1.30;;;;;;;2.50;81.07;100439.66;214074;1268;72445;-70
2024/01/25 17:41:55;;;;;;;2.30;0.90;;;;;;;2.39;80.85;100442.55;214091;1268;61255;-70
2024/01/25 17:46:48;;;;;;;1.10;0.90;;;;;;;2.29;80.76;100448.96;214112;1272;61944;-70
2024/01/25 17:51:40;;;;;;;2.80;1.50;;;;;;;2.24;80.83;100451.68;214007;1272;61820;-70
2024/01/25 17:56:38;;;;;;;1.70;1.20;;;;;;;2.24;80.41;100460.52;214025;1268;61281;-70
2024/01/25 18:01:31;;;;;;;1.20;0.90;;;;;;;2.26;80.55;100478.77;213802;1268;72599;-71
2024/01/25 18:06:24;;;;;;;2.20;1.40;;;;;;;2.28;80.55;100485.70;213801;1268;61291;-70
2024/01/25 18:17:53;;;;;;;2.10;1.20;;;;;;;2.32;80.59;100491.35;213874;1268;61377;-68
2024/01/25 18:29:43;;;;;;;2.50;1.60;;;;;;;2.32;80.76;100492.00;213476;1268;74788;-69
2024/01/25 18:34:36;;;;;;;3.10;2.00;;;;;;;2.33;80.53;100493.24;214003;1268;61327;-70
2024/01/25 18:39:29;;;;;;;3.00;1.60;;;;;;;2.33;80.63;100498.06;213999;1268;66733;-70
2024/01/25 18:44:23;;;;;;;2.40;1.90;;;;;;;2.31;80.65;100504.13;213945;1268;61425;-70
2024/01/25 18:49:16;;;;;;;2.80;2.00;;;;;;;2.29;80.83;100514.84;213783;1268;72680;-70
2024/01/25 18:54:11;;;;;;;2.10;1.30;;;;;;;2.28;80.77;100523.13;213788;1268;73144;-70
2024/01/25 18:59:04;;;;;;;6.80;3.60;;;;;;;2.25;80.73;100526.45;213817;1268;63433;-69
2024/01/25 19:04:02;;;;;;;3.20;1.70;;;;;;;2.23;81.02;100535.38;213821;1268;65529;-69
2024/01/25 19:08:55;;;;;;;3.00;1.70;;;;;;;2.22;81.11;100538.93;213783;1268;61342;-68
2024/01/25 19:13:48;;;;;;;2.10;1.60;;;;;;;2.21;80.89;100541.27;213733;1268;74581;-69
2024/01/25 19:18:40;;;;;;;3.40;2.40;;;;;;;2.20;81.06;100545.36;213713;1268;61377;-69
2024/01/25 19:23:33;;;;;;;6.60;4.20;;;;;;;2.20;81.02;100559.90;213739;1268;62187;-69
2024/01/25 19:28:26;;;;;;;6.00;2.70;;;;;;;2.19;81.38;100569.43;214029;1268;61351;-69
2024/01/25 19:33:19;;;;;;;3.40;3.00;;;;;;;2.18;81.31;100583.05;213667;1268;61409;-69
2024/01/25 19:38:12;;;;;;;4.20;2.70;;;;;;;2.16;81.20;100583.96;213820;1268;61364;-69
2024/01/25 19:43:05;;;;;;;4.10;2.90;;;;;;;2.14;81.35;100591.40;213663;1268;61239;-69
2024/01/25 19:47:58;;;;;;;3.50;3.10;;;;;;;2.12;81.20;100596.80;213764;1268;61268;-69
2024/01/25 19:52:51;;;;;;;4.10;3.20;;;;;;;2.10;81.46;100599.08;213718;1269;61395;-69
2024/01/25 19:57:44;;;;;;;4.10;2.80;;;;;;;2.08;81.24;100601.35;213673;1268;61387;-69
2024/01/25 20:02:38;;;;;;;6.30;3.30;;;;;;;2.04;81.35;100607.84;213884;1268;72302;-69
2024/01/25 20:07:31;;;;;;;5.20;2.80;;;;;;;2.00;81.42;100606.97;213832;1272;72601;-69
2024/01/25 20:12:24;;;;;;;3.30;3.00;;;;;;;1.99;81.29;100613.39;213726;1269;61274;-70
2024/01/25 20:17:18;;;;;;;4.50;3.60;;;;;;;1.95;81.47;100619.18;213530;1268;61361;-70
2024/01/25 20:22:11;;;;;;;4.40;3.60;;;;;;;1.92;81.85;100618.01;213564;1268;62239;-70
2024/01/25 20:27:04;;;;;;;4.40;3.60;;;;;;;1.90;81.73;100620.83;213666;1268;61272;-70
2024/01/25 20:31:57;;;;;;;5.00;4.20;;;;;;;1.89;81.66;100621.98;213571;1268;61370;-70
2024/01/25 20:36:49;;;;;;;4.90;4.30;;;;;;;1.88;81.35;100627.55;213562;1271;61269;-70
2024/01/25 20:41:42;;;;;;;7.60;4.20;;;;;;;1.87;81.78;100636.05;213507;1270;61867;-69
2024/01/25 20:46:35;;;;;;;5.20;4.10;;;;;;;1.87;81.70;100638.48;213654;1268;61392;-69
2024/01/25 20:51:28;;;;;;;3.90;3.50;;;;;;;1.87;81.42;100642.40;213583;1268;61287;-69
2024/01/25 20:56:22;;;;;;;5.40;4.00;;;;;;;1.87;81.35;100648.21;213661;1270;61935;-69
2024/01/25 21:01:15;;;;;;;5.30;4.00;;;;;;;1.87;81.39;100647.67;213551;1271;62039;-69
2024/01/25 21:06:09;;;;;;;4.10;3.70;;;;;;;1.86;81.47;100653.44;213562;1268;67112;-69
2024/01/25 21:11:03;;;;;;;6.80;4.10;;;;;;;1.84;81.53;100655.60;213836;1268;61276;-69
2024/01/25 21:15:59;;;;;;;5.30;3.80;;;;;;;1.84;81.52;100663.91;213371;1269;74042;-69
2024/01/25 21:20:52;;;;;;;6.70;4.70;;;;;;;1.82;81.41;100667.25;213468;1268;61294;-70
2024/01/25 21:25:44;;;;;;;4.60;2.90;;;;;;;1.81;81.52;100672.30;213592;1268;61559;-69
2024/01/25 21:30:37;;;;;;;4.40;3.30;;;;;;;1.80;81.50;100671.75;213530;1268;61280;-68
2024/01/25 21:35:30;;;;;;;4.10;3.70;;;;;;;1.79;81.45;100673.92;213661;1268;61275;-68
2024/01/25 21:40:23;;;;;;;3.90;3.30;;;;;;;1.79;81.32;100681.11;213790;1271;61353;-68
2024/01/25 21:45:16;;;;;;;4.50;2.90;;;;;;;1.79;81.32;100680.92;213737;1268;61297;-68
2024/01/25 21:50:09;;;;;;;6.70;3.40;;;;;;;1.79;81.31;100681.59;213840;1268;61951;-70
2024/01/25 21:55:06;;;;;;;3.70;3.10;;;;;;;1.78;81.19;100684.98;213897;1269;68028;-69
2024/01/25 21:59:59;;;;;;;3.30;3.00;;;;;;;1.76;81.28;100694.45;213516;1268;61252;-68
2024/01/25 22:04:52;;;;;;;4.20;3.80;;;;;;;1.76;81.12;100699.45;213619;1268;61369;-68
2024/01/25 22:09:45;;;;;;;4.00;2.90;;;;;;;1.77;81.17;100706.13;213559;1268;61293;-68
2024/01/25 22:14:39;;;;;;;2.70;2.50;;;;;;;1.76;81.18;100715.84;213783;1268;61415;-69
2024/01/25 22:19:33;;;;;;;4.80;3.90;;;;;;;1.76;80.90;100718.89;213808;1272;64873;-69
2024/01/25 22:24:26;;;;;;;4.40;3.50;;;;;;;1.76;81.18;100725.88;214056;1268;61274;-70
2024/01/25 22:29:18;;;;;;;3.10;2.80;;;;;;;1.74;81.10;100732.13;213864;1268;61275;-68
2024/01/25 22:34:12;;;;;;;4.70;3.30;;;;;;;1.73;81.06;100744.02;213795;1272;61287;-69
2024/01/25 22:39:05;;;;;;;3.70;2.30;;;;;;;1.71;81.49;100743.77;213799;1271;61355;-69
2024/01/25 22:43:57;;;;;;;4.00;3.00;;;;;;;1.71;81.17;100750.77;213977;1268;61358;-69
2024/01/25 22:48:50;;;;;;;4.00;3.50;;;;;;;1.69;81.41;100758.88;213874;1273;61370;-69
2024/01/25 22:53:43;;;;;;;3.40;2.70;;;;;;;1.69;81.09;100770.63;213633;1268;61359;-71
2024/01/25 22:58:36;;;;;;;3.80;2.40;;;;;;;1.67;81.12;100775.16;213647;1268;61274;-70
2024/01/25 23:03:29;;;;;;;5.50;3.20;;;;;;;1.66;81.09;100779.54;213788;1268;61357;-70
2024/01/25 23:08:22;;;;;;;4.10;2.80;;;;;;;1.67;81.28;100785.38;213680;1268;61308;-69